Time;durP1;ratioP1;P1;durP2;ratioP2;P2;SDS_P1;SDS_P2;PMS_P1;PMS_P2;Temp;Humidity;BMP_temperature;BMP_pressure;BME280_temperature;BME280_humidity;BME280_pressure;Samples;Min_cycle;Max_cycle;Signal;HPM_P1;HPM_P2
2023/11/17 00:01:48;;;;;;;3.10;2.00;;;;;;;0.26;77.09;98894.30;104852;1264;61170;-28
2023/11/17 00:04:16;;;;;;;3.40;2.30;;;;;;;-0.04;77.90;98902.52;104742;1268;73823;-27
2023/11/17 00:06:45;;;;;;;6.00;2.60;;;;;;;-0.31;78.95;98907.48;105291;1266;74347;-27
2023/11/17 00:16:40;;;;;;;3.90;2.10;;;;;;;0.52;78.23;98904.14;102639;1293;600820;-25
2023/11/17 00:19:09;;;;;;;2.80;2.20;;;;;;;0.82;76.39;98902.71;104818;1272;61218;-25
2023/11/17 00:21:37;;;;;;;3.80;2.30;;;;;;;0.68;76.08;98898.02;105505;1262;61106;-27
2023/11/17 00:24:06;;;;;;;4.30;2.80;;;;;;;0.41;76.12;98898.31;105532;1262;72218;-27
2023/11/17 00:34:15;;;;;;;3.60;1.90;;;;;;;-0.63;78.32;98903.27;102984;1289;599963;-27
2023/11/17 00:36:44;;;;;;;2.50;1.80;;;;;;;-0.89;78.64;98897.72;104827;1267;61183;-27
2023/11/17 00:46:54;;;;;;;5.20;2.80;;;;;;;0.32;76.26;98887.76;102636;1294;599457;-27
2023/11/17 00:49:22;;;;;;;3.90;2.50;;;;;;;0.05;76.02;98883.21;105542;1257;61168;-27
2023/11/17 00:51:51;;;;;;;5.40;2.40;;;;;;;-0.29;76.69;98873.46;105631;1260;61105;-27
2023/11/17 00:54:25;;;;;;;8.90;4.20;;;;;;;-0.68;79.38;98875.98;105510;1263;73448;-27
2023/11/17 00:56:54;;;;;;;9.80;5.50;;;;;;;-0.88;79.62;98865.84;105316;1261;74270;-27
2023/11/17 01:07:07;;;;;;;8.10;3.40;;;;;;;0.28;76.35;98840.95;102608;1293;600314;-25
2023/11/17 01:09:35;;;;;;;11.90;6.20;;;;;;;0.48;74.72;98833.45;104829;1268;61091;-29
2023/11/17 01:12:03;;;;;;;16.80;7.40;;;;;;;0.32;74.69;98822.16;104809;1272;61193;-28
2023/11/17 01:14:31;;;;;;;15.20;7.20;;;;;;;0.04;75.02;98818.55;104731;1267;72219;-27
2023/11/17 01:24:39;;;;;;;7.80;4.50;;;;;;;-1.02;76.50;98826.13;102656;1291;600128;-28
2023/11/17 01:27:06;;;;;;;12.10;3.40;;;;;;;-1.32;78.91;98831.31;104811;1263;61143;-27
2023/11/17 01:37:14;;;;;;;12.00;6.10;;;;;;;-0.05;76.35;98817.89;102593;1296;600198;-25
2023/11/17 01:47:21;;;;;;;7.00;3.90;;;;;;;-1.00;77.23;98809.86;102604;1293;600189;-28
2023/11/17 01:49:49;;;;;;;10.70;4.00;;;;;;;-1.25;77.59;98812.00;105031;1265;61073;-27
2023/11/17 01:52:18;;;;;;;4.40;2.50;;;;;;;-1.45;78.07;98809.81;104839;1269;61190;-27
2023/11/17 01:54:46;;;;;;;4.30;2.80;;;;;;;-1.04;78.18;98797.90;104842;1271;72196;-27
2023/11/17 01:57:14;;;;;;;7.00;3.40;;;;;;;-0.25;76.64;98785.44;105296;1260;73062;-27
2023/11/17 01:59:42;;;;;;;6.40;3.50;;;;;;;-0.05;75.74;98783.61;105279;1264;72616;-28
2023/11/17 02:02:10;;;;;;;9.60;4.30;;;;;;;-0.16;75.49;98783.05;103016;1258;3363764;-28
2023/11/17 02:04:38;;;;;;;7.00;4.10;;;;;;;-0.39;75.26;98791.83;105551;1259;61042;-27
2023/11/17 02:07:12;;;;;;;6.80;3.10;;;;;;;-0.66;75.41;98794.23;105501;1258;71337;-27
2023/11/17 02:17:00;;;;;;;5.20;2.50;;;;;;;-1.54;78.53;98807.59;103291;1288;599984;-26
2023/11/17 02:19:37;;;;;;;8.80;3.50;;;;;;;-1.05;78.27;98805.97;104869;1265;61228;-27
2023/11/17 02:22:09;;;;;;;12.40;3.70;;;;;;;-0.32;75.42;98806.89;104731;1273;61097;-27
2023/11/17 02:25:10;;;;;;;6.40;3.40;;;;;;;-0.22;73.71;98802.55;104638;1267;72240;-28
2023/11/17 02:27:46;;;;;;;3.60;2.60;;;;;;;-0.50;73.88;98802.17;104711;1273;72251;-27
2023/11/17 02:30:19;;;;;;;7.40;3.20;;;;;;;-0.84;74.15;98811.83;102220;1264;3459099;-27
2023/11/17 02:32:49;;;;;;;6.60;2.90;;;;;;;-1.20;75.31;98812.84;104792;1269;61173;-27
2023/11/17 02:35:18;;;;;;;5.00;2.60;;;;;;;-1.46;76.87;98803.05;104845;1264;61075;-27
2023/11/17 02:37:50;;;;;;;4.90;2.80;;;;;;;-1.60;77.28;98803.55;104650;1272;72263;-27
2023/11/17 02:40:18;;;;;;;2.70;1.80;;;;;;;-1.77;77.14;98804.11;104955;1264;74312;-27
2023/11/17 02:42:51;;;;;;;4.30;2.60;;;;;;;-1.96;77.87;98799.14;105003;1267;72711;-27
2023/11/17 02:53:23;;;;;;;4.80;2.80;;;;;;;-0.30;76.36;98791.63;103378;1283;600061;-26
2023/11/17 02:55:51;;;;;;;5.30;1.90;;;;;;;-0.51;75.34;98794.53;104865;1267;61225;-28
2023/11/17 02:58:19;;;;;;;2.50;1.60;;;;;;;-0.81;75.01;98801.81;104810;1269;61203;-27
2023/11/17 03:05:41;;;;;;;3.80;1.80;;;;;;;-1.57;76.44;98801.56;102372;1264;3385169;-26
2023/11/17 03:08:09;;;;;;;5.00;2.60;;;;;;;-1.76;77.08;98794.71;104845;1264;72658;-26
2023/11/17 03:10:37;;;;;;;3.70;2.70;;;;;;;-1.95;77.62;98788.07;105196;1266;61152;-26
2023/11/17 03:20:45;;;;;;;4.60;2.50;;;;;;;-0.59;74.94;98779.45;102661;1293;599394;-27
2023/11/17 03:23:15;;;;;;;9.60;3.90;;;;;;;-0.72;75.11;98774.36;104939;1269;61129;-27
2023/11/17 03:25:43;;;;;;;3.60;1.90;;;;;;;-0.92;75.50;98770.36;104869;1269;61121;-27
2023/11/17 03:28:13;;;;;;;7.40;3.70;;;;;;;-1.19;76.04;98758.10;104840;1264;72233;-27
2023/11/17 03:30:41;;;;;;;6.80;3.10;;;;;;;-1.45;76.39;98748.34;104857;1271;74290;-27
2023/11/17 03:33:12;;;;;;;9.00;4.20;;;;;;;-1.68;77.00;98744.05;104194;1263;3427822;-27
2023/11/17 03:35:40;;;;;;;3.40;2.20;;;;;;;-1.89;77.37;98739.02;104910;1264;61294;-27
2023/11/17 03:38:13;;;;;;;3.20;2.00;;;;;;;-1.49;78.33;98742.33;105147;1265;61099;-26
2023/11/17 03:40:45;;;;;;;4.70;2.90;;;;;;;-0.66;76.24;98741.20;105182;1264;61161;-26
2023/11/17 03:50:51;;;;;;;7.90;3.80;;;;;;;-1.13;74.76;98758.36;102710;1290;600200;-27
2023/11/17 03:53:19;;;;;;;6.70;4.30;;;;;;;-1.46;76.00;98762.50;105059;1265;61263;-27
2023/11/17 03:55:47;;;;;;;10.40;5.90;;;;;;;-1.70;76.26;98770.35;104900;1265;61215;-27
2023/11/17 03:58:15;;;;;;;13.80;6.20;;;;;;;-1.87;76.80;98771.63;104846;1272;70936;-27
2023/11/17 04:00:48;;;;;;;14.50;7.30;;;;;;;-2.03;77.11;98768.94;105112;1264;74261;-27
2023/11/17 04:03:19;;;;;;;8.80;4.70;;;;;;;-2.19;77.62;98772.69;104032;1267;3599780;-27
2023/11/17 04:05:47;;;;;;;7.40;4.10;;;;;;;-1.63;78.24;98777.23;104869;1264;61297;-27
2023/11/17 04:15:59;;;;;;;7.60;4.10;;;;;;;-0.90;74.67;98782.05;102748;1294;600200;-27
2023/11/17 04:18:28;;;;;;;8.00;4.20;;;;;;;-1.33;75.97;98783.83;105204;1266;61250;-27
2023/11/17 04:28:36;;;;;;;5.60;3.60;;;;;;;-2.06;77.04;98776.02;102612;1293;599569;-27
2023/11/17 04:31:07;;;;;;;3.80;2.00;;;;;;;-2.29;78.55;98772.18;104884;1269;61650;-27
2023/11/17 04:33:35;;;;;;;9.30;4.40;;;;;;;-1.78;78.38;98770.95;104766;1273;61139;-27
2023/11/17 04:36:03;;;;;;;7.10;3.80;;;;;;;-0.90;76.53;98767.05;104859;1271;72210;-28
2023/11/17 04:38:31;;;;;;;4.90;3.40;;;;;;;-0.66;75.25;98762.70;104766;1272;74297;-27
2023/11/17 04:41:02;;;;;;;7.50;4.50;;;;;;;-0.78;74.91;98765.39;108365;1266;3487011;-26
2023/11/17 04:43:30;;;;;;;8.30;4.60;;;;;;;-0.99;74.90;98771.30;108587;1264;58872;-26
2023/11/17 04:45:57;;;;;;;4.50;3.10;;;;;;;-1.26;75.00;98774.21;108626;1264;59110;-26
2023/11/17 04:48:25;;;;;;;6.70;3.60;;;;;;;-1.51;76.09;98771.20;108625;1264;60159;-26
2023/11/17 04:50:53;;;;;;;8.00;3.80;;;;;;;-1.72;76.59;98775.17;108661;1264;71434;-26
2023/11/17 04:53:20;;;;;;;7.00;3.80;;;;;;;-1.92;77.19;98780.63;108627;1264;74530;-25
2023/11/17 04:55:50;;;;;;;7.00;4.10;;;;;;;-2.09;77.31;98788.19;108606;1270;71050;-25
2023/11/17 04:58:18;;;;;;;4.20;2.30;;;;;;;-2.27;77.98;98790.33;108715;1265;59581;-26
2023/11/17 05:00:48;;;;;;;13.60;4.80;;;;;;;-1.77;77.84;98785.39;108751;1264;58834;-26
2023/11/17 05:03:16;;;;;;;8.00;4.30;;;;;;;-0.93;74.78;98783.02;108737;1264;71301;-26
2023/11/17 05:05:48;;;;;;;10.40;4.40;;;;;;;-0.68;73.12;98783.27;108752;1264;73226;-26
2023/11/17 05:08:16;;;;;;;13.10;4.30;;;;;;;-0.80;73.34;98788.14;108702;1264;72648;-26
2023/11/17 05:10:45;;;;;;;8.20;3.70;;;;;;;-0.97;73.91;98791.54;108639;1263;58869;-26
2023/11/17 05:13:13;;;;;;;5.40;3.50;;;;;;;-1.19;75.10;98792.84;108755;1264;58759;-26
2023/11/17 05:15:45;;;;;;;8.60;3.00;;;;;;;-1.38;75.55;98792.17;108740;1263;73101;-26
2023/11/17 05:18:13;;;;;;;5.60;3.10;;;;;;;-1.58;76.27;98799.88;108615;1264;74357;-26
2023/11/17 05:20:42;;;;;;;4.00;2.70;;;;;;;-1.81;77.19;98807.34;108716;1264;72653;-26
2023/11/17 05:23:12;;;;;;;6.40;2.50;;;;;;;-1.99;78.40;98813.22;108721;1265;58898;-26
2023/11/17 05:25:40;;;;;;;5.10;2.70;;;;;;;-2.13;79.87;98822.16;108643;1264;58939;-25
2023/11/17 05:28:11;;;;;;;5.30;2.80;;;;;;;-1.50;79.97;98823.60;108698;1264;71822;-26
2023/11/17 05:30:38;;;;;;;10.60;3.80;;;;;;;-0.59;77.87;98823.82;108670;1264;74334;-26
2023/11/17 05:33:06;;;;;;;5.90;3.60;;;;;;;-0.33;75.76;98821.08;109297;1256;71097;-26
2023/11/17 05:35:37;;;;;;;7.80;3.20;;;;;;;-0.43;74.79;98826.09;109294;1254;58820;-26
2023/11/17 05:38:05;;;;;;;8.50;3.30;;;;;;;-0.70;74.89;98832.60;109220;1254;58741;-26
2023/11/17 05:40:33;;;;;;;4.10;2.50;;;;;;;-0.94;74.83;98837.41;109336;1254;73125;-26
2023/11/17 05:43:05;;;;;;;4.80;2.60;;;;;;;-1.17;75.59;98839.79;109305;1254;73380;-26
2023/11/17 05:45:34;;;;;;;6.50;2.30;;;;;;;-1.36;76.23;98842.70;109322;1254;71657;-26
2023/11/17 05:48:02;;;;;;;6.00;3.30;;;;;;;-1.50;76.96;98842.66;109291;1256;59356;-26
2023/11/17 05:50:30;;;;;;;4.30;2.90;;;;;;;-1.59;77.50;98846.58;109296;1254;58784;-26
2023/11/17 05:52:58;;;;;;;9.80;2.30;;;;;;;-1.70;78.26;98845.90;109433;1254;73053;-26
2023/11/17 05:55:25;;;;;;;5.50;2.70;;;;;;;-1.16;78.20;98851.16;109283;1254;73188;-26
2023/11/17 05:57:53;;;;;;;11.90;3.20;;;;;;;-0.28;75.90;98850.05;109275;1254;72672;-26
2023/11/17 06:00:21;;;;;;;9.00;3.60;;;;;;;-0.09;74.54;98845.23;109240;1254;58848;-26
2023/11/17 06:02:50;;;;;;;5.60;3.20;;;;;;;-0.30;75.37;98847.60;109385;1254;60219;-26
2023/11/17 06:05:18;;;;;;;5.80;3.20;;;;;;;-0.43;76.09;98849.29;109319;1255;73138;-26
2023/11/17 06:07:46;;;;;;;8.90;3.20;;;;;;;-0.49;76.91;98854.81;109440;1254;73331;-26
2023/11/17 06:10:14;;;;;;;8.50;3.70;;;;;;;-0.59;77.12;98854.00;109284;1254;70920;-26
2023/11/17 06:12:42;;;;;;;5.50;3.70;;;;;;;-0.69;77.26;98851.67;109278;1254;59313;-26
2023/11/17 06:15:14;;;;;;;6.80;3.60;;;;;;;-0.80;77.06;98849.69;109326;1254;60061;-26
2023/11/17 06:17:42;;;;;;;5.90;2.90;;;;;;;-0.93;77.68;98850.36;109251;1254;71813;-26
2023/11/17 06:20:10;;;;;;;7.30;3.50;;;;;;;-0.42;77.59;98848.88;109318;1254;74392;-26
2023/11/17 06:22:52;;;;;;;8.50;4.10;;;;;;;0.41;75.56;98845.68;109121;1257;72518;-26
2023/11/17 06:25:41;;;;;;;15.90;4.40;;;;;;;0.58;74.21;98853.36;109030;1257;60102;-26
2023/11/17 06:28:09;;;;;;;7.40;4.70;;;;;;;0.50;74.49;98855.55;108780;1260;58875;-26
2023/11/17 06:30:36;;;;;;;9.40;4.10;;;;;;;0.36;74.71;98856.17;108806;1260;71991;-26
2023/11/17 06:33:04;;;;;;;8.70;4.20;;;;;;;0.19;75.13;98855.15;108785;1262;73099;-26
2023/11/17 06:35:32;;;;;;;10.30;4.60;;;;;;;0.03;75.36;98855.98;108850;1262;71411;-26
2023/11/17 06:38:03;;;;;;;7.40;5.00;;;;;;;-0.12;75.65;98854.38;108778;1261;59309;-26
2023/11/17 06:40:31;;;;;;;11.70;5.80;;;;;;;-0.24;76.12;98850.77;108793;1261;58787;-26
2023/11/17 06:42:59;;;;;;;8.20;3.70;;;;;;;-0.37;76.72;98857.05;108855;1261;73120;-26
2023/11/17 06:45:27;;;;;;;14.40;5.60;;;;;;;0.18;77.09;98852.30;108818;1261;73687;-26
2023/11/17 06:47:55;;;;;;;10.20;5.00;;;;;;;0.98;75.05;98849.34;108866;1261;70702;-26
2023/11/17 06:50:23;;;;;;;11.00;5.80;;;;;;;1.20;74.11;98843.77;108798;1262;60143;-26
2023/11/17 06:52:51;;;;;;;9.40;5.20;;;;;;;1.11;73.63;98841.92;108845;1262;60089;-26
2023/11/17 06:55:19;;;;;;;10.80;5.10;;;;;;;0.93;74.06;98839.84;108987;1259;71991;-26
2023/11/17 06:57:47;;;;;;;18.40;10.40;;;;;;;0.77;74.61;98838.86;108987;1259;74332;-26
2023/11/17 07:00:15;;;;;;;21.80;11.40;;;;;;;0.61;74.91;98843.46;108923;1259;72703;-26
2023/11/17 07:02:42;;;;;;;25.90;11.30;;;;;;;0.47;75.32;98843.54;108989;1258;59235;-26
2023/11/17 07:05:10;;;;;;;13.90;8.20;;;;;;;0.40;75.97;98846.78;109021;1255;60015;-26
2023/11/17 07:07:39;;;;;;;8.20;4.50;;;;;;;0.31;76.72;98848.86;109202;1256;71814;-26
2023/11/17 07:10:14;;;;;;;13.00;5.90;;;;;;;0.83;76.77;98844.88;109206;1255;74403;-26
2023/11/17 07:12:42;;;;;;;16.50;7.20;;;;;;;1.65;74.98;98845.92;109243;1254;71690;-26
2023/11/17 07:15:13;;;;;;;14.20;8.20;;;;;;;1.89;73.79;98844.11;109128;1255;60104;-26
2023/11/17 07:17:42;;;;;;;13.20;7.10;;;;;;;1.81;73.31;98841.75;109261;1255;60014;-26
2023/11/17 07:20:11;;;;;;;15.70;9.40;;;;;;;1.68;73.63;98838.63;109241;1256;73471;-26
2023/11/17 07:22:39;;;;;;;22.20;11.50;;;;;;;1.49;73.93;98835.76;109302;1255;74492;-26
2023/11/17 07:25:10;;;;;;;21.30;12.60;;;;;;;1.34;74.46;98836.95;109133;1256;72716;-26
2023/11/17 07:27:39;;;;;;;20.40;11.30;;;;;;;1.18;74.63;98833.92;109204;1255;59276;-26
2023/11/17 07:30:12;;;;;;;21.60;10.70;;;;;;;1.06;75.25;98830.17;109367;1255;58860;-26
2023/11/17 07:32:41;;;;;;;12.10;6.40;;;;;;;0.93;75.75;98830.61;109305;1255;73060;-26
2023/11/17 07:35:08;;;;;;;22.30;11.50;;;;;;;1.56;75.68;98835.38;109125;1255;74356;-26
2023/11/17 07:37:36;;;;;;;32.90;16.60;;;;;;;2.34;73.60;98825.42;109097;1257;72647;-26
2023/11/17 07:40:05;;;;;;;31.50;15.70;;;;;;;2.57;72.30;98830.94;109193;1256;59139;-26
2023/11/17 07:42:33;;;;;;;24.80;14.80;;;;;;;2.50;72.23;98821.69;109132;1255;58799;-26
2023/11/17 07:45:03;;;;;;;26.10;14.40;;;;;;;2.42;72.66;98823.15;109202;1259;73093;-26
2023/11/17 07:47:33;;;;;;;22.70;13.50;;;;;;;2.33;72.76;98823.25;109192;1256;74511;-27
2023/11/17 07:50:03;;;;;;;19.70;11.20;;;;;;;2.24;73.15;98819.95;109242;1256;71281;-26
2023/11/17 07:52:31;;;;;;;19.00;11.10;;;;;;;2.20;73.23;98817.36;109099;1255;59236;-26
2023/11/17 07:54:59;;;;;;;18.50;10.90;;;;;;;2.16;73.52;98818.30;109121;1259;58795;-26
2023/11/17 07:57:27;;;;;;;16.40;10.10;;;;;;;2.20;73.66;98820.50;109257;1255;71785;-25
2023/11/17 07:59:55;;;;;;;16.10;10.00;;;;;;;2.24;73.51;98817.06;109213;1256;74319;-24
2023/11/17 08:02:22;;;;;;;17.80;11.20;;;;;;;2.30;73.75;98809.54;109133;1257;70665;-24
2023/11/17 08:04:50;;;;;;;12.10;7.90;;;;;;;2.30;73.79;98803.35;109135;1255;58867;-23
2023/11/17 08:07:18;;;;;;;12.30;5.20;;;;;;;2.31;74.03;98802.14;109178;1255;58851;-23
2023/11/17 08:09:46;;;;;;;9.50;6.70;;;;;;;2.34;74.20;98801.64;109322;1255;71762;-24
2023/11/17 08:12:14;;;;;;;11.90;5.80;;;;;;;2.43;74.53;98801.70;109156;1255;73522;-24
2023/11/17 08:14:42;;;;;;;10.20;6.70;;;;;;;2.44;74.51;98806.23;109295;1255;71478;-24
2023/11/17 08:17:11;;;;;;;9.30;4.80;;;;;;;2.38;74.37;98801.77;109115;1255;59293;-24
2023/11/17 08:19:40;;;;;;;11.50;6.70;;;;;;;2.95;73.75;98799.30;109205;1257;59148;-24
2023/11/17 08:22:08;;;;;;;13.40;7.70;;;;;;;3.62;71.61;98793.54;109158;1257;75109;-24
2023/11/17 08:24:36;;;;;;;10.50;6.00;;;;;;;3.77;70.10;98795.63;109150;1255;74325;-24
2023/11/17 08:27:03;;;;;;;8.40;5.10;;;;;;;3.68;70.00;98797.83;109224;1255;72702;-24
2023/11/17 08:29:31;;;;;;;9.40;6.10;;;;;;;3.59;70.58;98798.55;109176;1256;58914;-24
2023/11/17 08:31:58;;;;;;;9.90;6.20;;;;;;;3.52;70.75;98802.55;109250;1255;60014;-24
2023/11/17 08:34:26;;;;;;;10.10;5.50;;;;;;;3.39;71.00;98807.39;109206;1257;73029;-24
2023/11/17 08:36:54;;;;;;;11.50;6.80;;;;;;;3.46;71.72;98806.63;109226;1257;74718;-23
2023/11/17 08:39:28;;;;;;;9.00;5.60;;;;;;;3.58;71.92;98805.96;109135;1256;72780;-24
2023/11/17 08:41:56;;;;;;;11.40;5.50;;;;;;;3.69;71.39;98806.03;109084;1257;58761;-24
2023/11/17 08:44:27;;;;;;;6.10;4.00;;;;;;;3.87;71.20;98805.40;109232;1257;58798;-24
2023/11/17 08:46:55;;;;;;;5.70;3.70;;;;;;;3.97;70.29;98798.95;109076;1257;72823;-24
2023/11/17 08:49:23;;;;;;;3.70;2.80;;;;;;;4.12;70.17;98791.73;109120;1257;76550;-23
2023/11/17 08:51:51;;;;;;;5.30;3.40;;;;;;;4.24;68.56;98783.11;109214;1257;72629;-24
2023/11/17 08:54:19;;;;;;;6.50;3.30;;;;;;;4.35;68.81;98777.52;109124;1257;58852;-24
2023/11/17 08:56:49;;;;;;;6.00;4.00;;;;;;;4.50;67.85;98780.54;109106;1256;58759;-24
2023/11/17 08:59:19;;;;;;;5.70;3.70;;;;;;;4.70;67.21;98780.54;109262;1257;73899;-24
2023/11/17 09:01:48;;;;;;;7.50;4.40;;;;;;;4.84;66.79;98785.90;109155;1257;73586;-24
2023/11/17 09:04:17;;;;;;;5.60;3.30;;;;;;;5.07;66.01;98781.86;109084;1257;74834;-24
2023/11/17 09:06:44;;;;;;;5.90;3.80;;;;;;;5.14;65.43;98786.06;109171;1257;58900;-24
2023/11/17 09:09:13;;;;;;;5.40;3.40;;;;;;;5.06;65.22;98786.11;109156;1257;58862;-24
2023/11/17 09:11:47;;;;;;;4.50;3.40;;;;;;;4.97;64.81;98783.70;109129;1256;75256;-24
2023/11/17 09:14:15;;;;;;;6.00;3.90;;;;;;;5.10;65.48;98780.52;109122;1256;73039;-24
2023/11/17 09:16:44;;;;;;;6.20;4.00;;;;;;;5.12;64.61;98774.17;109082;1257;72351;-24
2023/11/17 09:19:16;;;;;;;7.20;4.50;;;;;;;5.11;65.11;98771.00;109208;1257;58809;-24
2023/11/17 09:21:44;;;;;;;4.30;2.90;;;;;;;5.11;65.09;98764.23;109165;1256;58715;-24
2023/11/17 09:24:12;;;;;;;5.70;3.70;;;;;;;5.16;64.96;98763.42;109232;1256;73814;-24
2023/11/17 09:26:39;;;;;;;5.50;3.70;;;;;;;5.16;64.33;98759.14;109141;1257;76267;-24
2023/11/17 09:29:07;;;;;;;4.00;3.50;;;;;;;5.00;63.94;98749.66;109227;1257;73838;-24
2023/11/17 09:31:35;;;;;;;4.20;2.90;;;;;;;4.83;64.40;98749.66;109170;1256;61372;-24
2023/11/17 09:34:02;;;;;;;5.00;3.80;;;;;;;4.76;64.19;98749.90;109206;1257;60025;-24
2023/11/17 09:36:30;;;;;;;5.60;3.70;;;;;;;4.63;64.63;98751.05;109064;1258;73851;-24
2023/11/17 09:38:58;;;;;;;4.90;3.50;;;;;;;4.46;65.20;98748.30;109105;1257;73202;-24
2023/11/17 09:41:26;;;;;;;5.10;3.50;;;;;;;4.39;65.87;98748.74;109062;1257;73345;-24
2023/11/17 09:43:57;;;;;;;4.10;2.70;;;;;;;4.43;65.45;98746.93;108998;1257;59273;-24
2023/11/17 09:46:27;;;;;;;5.50;2.70;;;;;;;4.63;65.28;98743.33;108959;1257;61120;-24
2023/11/17 09:48:59;;;;;;;4.50;3.10;;;;;;;4.85;64.09;98741.63;109004;1257;72358;-24
2023/11/17 09:51:28;;;;;;;4.20;2.70;;;;;;;5.03;63.46;98737.73;108994;1257;76623;-24
2023/11/17 09:53:56;;;;;;;3.70;2.50;;;;;;;5.20;61.80;98738.07;109009;1258;72369;-24
2023/11/17 09:56:24;;;;;;;3.10;2.20;;;;;;;5.10;61.23;98737.11;108939;1258;59309;-24
2023/11/17 09:58:52;;;;;;;3.00;2.30;;;;;;;4.90;61.81;98739.56;109022;1258;58779;-25
2023/11/17 10:01:20;;;;;;;6.70;3.40;;;;;;;4.59;62.32;98739.27;108979;1257;73922;-25
2023/11/17 10:03:48;;;;;;;5.90;3.40;;;;;;;4.38;62.75;98742.10;109069;1257;76303;-25
2023/11/17 10:06:16;;;;;;;4.80;2.50;;;;;;;4.23;63.20;98738.83;109077;1257;73696;-25
2023/11/17 10:08:45;;;;;;;3.70;2.40;;;;;;;4.12;63.49;98740.18;109028;1258;58899;-25
2023/11/17 10:11:13;;;;;;;2.40;2.10;;;;;;;4.05;63.61;98739.94;109001;1258;59223;-26
2023/11/17 10:13:40;;;;;;;3.90;2.70;;;;;;;4.10;63.96;98738.26;109004;1258;73838;-26
2023/11/17 10:16:08;;;;;;;2.60;2.20;;;;;;;4.22;63.38;98730.84;109031;1257;75238;-26
2023/11/17 10:18:37;;;;;;;3.50;2.30;;;;;;;4.13;62.83;98726.93;108900;1257;73552;-26
2023/11/17 10:21:05;;;;;;;2.90;1.80;;;;;;;4.10;62.80;98726.22;109031;1258;61389;-26
2023/11/17 10:23:33;;;;;;;1.80;1.70;;;;;;;4.04;63.07;98718.51;109060;1257;62240;-26
2023/11/17 10:26:01;;;;;;;3.70;2.10;;;;;;;4.10;63.28;98717.13;109002;1258;72581;-27
2023/11/17 10:28:29;;;;;;;2.90;1.80;;;;;;;4.20;63.28;98715.31;109039;1257;76665;-26
2023/11/17 10:31:00;;;;;;;3.00;2.30;;;;;;;4.18;62.75;98712.33;109042;1257;72665;-26
2023/11/17 10:33:40;;;;;;;3.70;2.50;;;;;;;4.28;63.46;98713.64;108870;1265;58869;-26
2023/11/17 10:36:12;;;;;;;2.50;2.00;;;;;;;4.47;63.14;98712.48;108973;1257;62181;-26
2023/11/17 10:38:46;;;;;;;3.40;2.20;;;;;;;4.66;63.16;98711.48;108906;1258;72576;-26
2023/11/17 10:41:22;;;;;;;2.00;1.50;;;;;;;4.84;62.19;98709.85;109035;1258;74241;-26
2023/11/17 10:43:51;;;;;;;2.90;2.20;;;;;;;4.93;61.34;98708.64;108779;1258;72679;-26
2023/11/17 10:46:26;;;;;;;3.80;2.00;;;;;;;4.82;61.27;98702.38;109013;1257;58832;-26
2023/11/17 10:49:00;;;;;;;2.50;1.70;;;;;;;4.81;61.31;98697.52;108924;1258;60001;-26
2023/11/17 10:51:30;;;;;;;4.20;2.60;;;;;;;4.67;61.07;98696.13;108974;1258;73813;-26
2023/11/17 10:54:05;;;;;;;3.90;2.10;;;;;;;4.69;60.96;98699.43;108906;1259;73063;-26
2023/11/17 10:56:35;;;;;;;1.60;1.20;;;;;;;4.80;60.41;98699.45;108948;1259;73631;-26
2023/11/17 10:59:03;;;;;;;3.10;1.60;;;;;;;4.85;60.14;98702.53;108905;1259;60167;-26
2023/11/17 11:01:31;;;;;;;2.10;1.60;;;;;;;5.00;60.42;98693.90;109017;1259;58842;-26
2023/11/17 11:04:00;;;;;;;2.50;1.40;;;;;;;5.13;59.28;98691.86;108980;1257;73088;-26
2023/11/17 11:06:29;;;;;;;1.80;1.60;;;;;;;5.31;59.69;98691.58;109013;1259;73599;-26
2023/11/17 11:09:00;;;;;;;1.40;1.30;;;;;;;5.36;59.09;98687.98;108990;1258;72677;-26
2023/11/17 11:11:28;;;;;;;2.10;1.60;;;;;;;5.35;58.34;98690.61;108984;1259;59287;-26
2023/11/17 11:13:57;;;;;;;5.90;1.90;;;;;;;5.36;58.13;98693.61;109038;1258;58769;-26
2023/11/17 11:16:24;;;;;;;2.90;2.30;;;;;;;5.42;58.19;98692.08;109033;1258;73892;-26
2023/11/17 11:18:53;;;;;;;2.60;1.70;;;;;;;5.50;57.91;98687.40;109046;1259;76580;-26
2023/11/17 11:21:21;;;;;;;3.80;2.80;;;;;;;5.54;57.86;98686.80;108932;1258;71451;-26
2023/11/17 11:23:50;;;;;;;3.50;2.70;;;;;;;5.62;57.70;98687.68;109002;1260;58745;-26
2023/11/17 11:26:18;;;;;;;3.90;2.50;;;;;;;5.74;57.65;98689.98;108985;1258;58840;-27
2023/11/17 11:28:46;;;;;;;3.00;2.00;;;;;;;5.74;57.17;98690.96;108909;1258;73886;-26
2023/11/17 11:31:17;;;;;;;3.50;2.40;;;;;;;5.74;57.67;98687.71;109008;1259;74486;-26
2023/11/17 11:33:46;;;;;;;3.70;2.40;;;;;;;5.66;56.62;98686.52;108986;1260;72651;-26
2023/11/17 11:36:19;;;;;;;3.60;2.30;;;;;;;5.38;56.14;98685.28;108998;1259;60752;-26
2023/11/17 11:38:49;;;;;;;3.00;1.80;;;;;;;5.29;56.38;98686.52;108892;1259;59814;-26
2023/11/17 11:41:22;;;;;;;3.20;2.10;;;;;;;5.13;56.48;98685.83;108924;1260;73919;-26
2023/11/17 11:43:52;;;;;;;3.40;1.90;;;;;;;5.24;57.17;98689.09;108776;1259;74330;-26
2023/11/17 11:46:27;;;;;;;3.40;2.00;;;;;;;5.19;56.34;98684.08;108868;1259;71415;-26
2023/11/17 11:49:04;;;;;;;2.70;1.90;;;;;;;5.07;56.81;98685.89;108872;1262;59285;-26
2023/11/17 11:51:58;;;;;;;2.70;1.70;;;;;;;5.00;56.98;98682.86;108809;1259;61066;-26
2023/11/17 11:54:27;;;;;;;2.40;1.50;;;;;;;5.09;57.27;98682.96;108789;1262;74078;-26
2023/11/17 11:57:02;;;;;;;2.10;1.40;;;;;;;5.16;56.85;98679.08;108746;1262;75458;-26
2023/11/17 11:59:34;;;;;;;2.30;1.90;;;;;;;5.20;57.00;98678.83;108877;1261;73603;-26
2023/11/17 12:02:04;;;;;;;2.80;1.60;;;;;;;5.33;56.99;98675.39;108737;1262;59242;-26
2023/11/17 12:04:39;;;;;;;1.50;1.40;;;;;;;5.40;56.83;98675.81;108734;1262;60112;-26
2023/11/17 12:07:33;;;;;;;3.00;1.80;;;;;;;5.40;56.36;98673.23;108705;1262;75367;-26
2023/11/17 12:10:05;;;;;;;4.00;1.30;;;;;;;5.38;56.45;98674.77;108830;1262;73088;-27
2023/11/17 12:12:36;;;;;;;1.30;1.00;;;;;;;5.34;56.85;98668.96;108751;1263;72811;-26
2023/11/17 12:15:06;;;;;;;4.20;2.20;;;;;;;5.29;56.80;98670.54;108771;1262;59648;-26
2023/11/17 12:17:59;;;;;;;3.00;2.00;;;;;;;5.28;56.59;98667.31;108748;1262;60516;-26
2023/11/17 12:20:29;;;;;;;2.80;1.80;;;;;;;5.24;56.83;98660.16;108845;1262;76070;-27
2023/11/17 12:23:02;;;;;;;1.60;1.10;;;;;;;5.17;56.79;98654.26;108850;1263;75955;-26
2023/11/17 12:25:34;;;;;;;2.80;1.60;;;;;;;5.17;57.33;98653.73;108751;1261;72937;-26
2023/11/17 12:28:03;;;;;;;2.60;1.60;;;;;;;5.12;57.45;98649.94;108729;1262;60783;-25
2023/11/17 12:30:36;;;;;;;1.90;1.60;;;;;;;4.93;57.75;98646.14;108747;1262;62235;-26
2023/11/17 12:41:03;;;;;;;2.90;1.70;;;;;;;4.57;59.05;98639.86;102623;1296;600107;-24
2023/11/17 12:43:31;;;;;;;3.00;1.80;;;;;;;4.44;58.86;98639.63;104878;1267;61155;-25
2023/11/17 12:46:00;;;;;;;2.40;1.90;;;;;;;4.46;58.86;98644.13;104904;1267;61064;-25
2023/11/17 12:48:28;;;;;;;2.30;1.80;;;;;;;4.43;59.13;98649.27;104890;1270;72224;-25
2023/11/17 12:50:57;;;;;;;3.70;2.70;;;;;;;4.44;59.48;98648.90;104874;1267;76652;-26
2023/11/17 12:53:25;;;;;;;3.40;2.20;;;;;;;4.47;59.59;98651.96;102345;1266;3465894;-26
2023/11/17 12:56:02;;;;;;;3.30;2.20;;;;;;;4.43;59.69;98656.52;104900;1270;61263;-26
2023/11/17 12:58:31;;;;;;;2.40;1.80;;;;;;;4.42;59.66;98659.47;104843;1264;61166;-26
2023/11/17 13:01:16;;;;;;;2.90;2.30;;;;;;;4.31;60.12;98660.01;105625;1260;73982;-26
2023/11/17 13:03:48;;;;;;;5.20;2.50;;;;;;;4.17;60.13;98658.14;105473;1257;74310;-26
2023/11/17 13:06:18;;;;;;;4.50;2.90;;;;;;;4.10;61.06;98658.34;105286;1261;72697;-27
2023/11/17 13:08:47;;;;;;;3.10;2.40;;;;;;;4.09;61.06;98659.48;105754;1259;61218;-26
2023/11/17 13:11:15;;;;;;;3.80;2.10;;;;;;;4.04;61.23;98662.67;105512;1256;61782;-26
2023/11/17 13:13:44;;;;;;;2.60;2.00;;;;;;;3.94;61.13;98656.08;105645;1251;75031;-26
2023/11/17 13:16:14;;;;;;;4.50;2.10;;;;;;;3.88;61.26;98657.30;105595;1251;77206;-26
2023/11/17 13:18:45;;;;;;;2.90;2.20;;;;;;;3.81;61.82;98656.85;105426;1251;73115;-26
2023/11/17 13:21:15;;;;;;;3.10;1.60;;;;;;;3.69;61.78;98658.39;105744;1257;61189;-25
2023/11/17 13:23:44;;;;;;;2.50;1.80;;;;;;;3.63;62.02;98660.45;105705;1251;62311;-26
2023/11/17 13:26:20;;;;;;;2.20;1.70;;;;;;;3.58;62.39;98661.98;105612;1251;75338;-26
2023/11/17 13:28:48;;;;;;;3.20;2.00;;;;;;;3.52;62.51;98663.87;105660;1251;76560;-26
2023/11/17 13:31:18;;;;;;;2.60;1.60;;;;;;;3.46;62.91;98669.86;105705;1257;72840;-27